Invercargill, New Zealand
Current Conditions -  °F | °C
As of 2:00 AM on Friday 30 Jan 2015 (Local Time) from NZCH Reporting Station
Overcast Overcast  
Wind Chill: 63°   Ceiling: 1400
Heat Index: 63°   Visibility: 6mi
Dew Point: 59°   Wind: 7mph
Humidity: 88%   Direction: 70°ENE
Pressure: 29.97"   Gusts: NA
Location:  46.41°S, 168.36°E
Report Text: NZCH 291400Z AUTO 07006KT 9999 OVC014/// 17/15 Q1015 TEMPO 2500+DZ BKN006
Loading
Personal Weather Stations






























Interactive Weather Map New forecast layout! Learn more

10-Day Weather Forecast

Advertisements
Track Severe Weather on mobile